createdAt,value
2018-07-07T00:00:09.084Z,89.06
2018-07-07T00:01:09.084Z,88.96
2018-07-07T00:02:09.082Z,89.06
2018-07-07T00:03:09.073Z,89.37
2018-07-07T00:04:09.063Z,89.26
2018-07-07T00:05:09.031Z,88.96
2018-07-07T00:06:09.024Z,88.35
2018-07-07T00:07:09.012Z,88.35
2018-07-07T00:08:09.002Z,87.84
2018-07-07T00:09:09.039Z,88.24
2018-07-07T00:10:08.975Z,88.24
2018-07-07T00:11:08.974Z,88.35
2018-07-07T00:12:08.958Z,88.08
2018-07-07T00:13:08.963Z,87.98
2018-07-07T00:14:08.947Z,88.79
2018-07-07T00:15:08.919Z,89.31
2018-07-07T00:16:08.913Z,89.00
2018-07-07T00:17:08.899Z,89.00
2018-07-07T00:18:08.894Z,89.11
2018-07-07T00:19:08.976Z,89.41
2018-07-07T00:20:08.871Z,89.00
2018-07-07T00:21:08.857Z,88.79
2018-07-07T00:22:08.877Z,89.00
2018-07-07T00:23:08.836Z,89.11
2018-07-07T00:24:08.917Z,89.31
2018-07-07T00:25:08.811Z,89.92
2018-07-07T00:26:08.871Z,89.20
2018-07-07T00:27:08.838Z,87.98
2018-07-07T00:28:08.789Z,87.98
2018-07-07T00:29:08.767Z,88.39
2018-07-07T00:30:08.752Z,88.29
2018-07-07T00:31:08.737Z,88.29
2018-07-07T00:32:08.724Z,88.29
2018-07-07T00:33:08.716Z,88.08
2018-07-07T00:34:08.711Z,88.49
2018-07-07T00:35:08.694Z,88.49
2018-07-07T00:36:08.680Z,88.74
2018-07-07T00:37:08.668Z,88.74
2018-07-07T00:38:08.661Z,88.53
2018-07-07T00:39:08.665Z,88.74
2018-07-07T00:40:08.637Z,88.64
2018-07-07T00:41:08.624Z,88.23
2018-07-07T00:42:08.624Z,88.74
2018-07-07T00:43:08.600Z,88.33
2018-07-07T00:44:08.603Z,88.84
2018-07-07T00:45:08.580Z,88.33
2018-07-07T00:46:08.568Z,88.64
2018-07-07T00:47:08.569Z,88.68
2018-07-07T00:48:08.547Z,88.68
2018-07-07T00:49:08.544Z,88.78
2018-07-07T00:50:08.522Z,88.33
2018-07-07T00:51:08.519Z,88.26
2018-07-07T00:52:08.503Z,88.17
2018-07-07T00:53:08.488Z,88.78
2018-07-07T00:54:08.488Z,88.26
2018-07-07T00:55:08.468Z,88.06
2018-07-07T00:56:08.463Z,88.06
2018-07-07T00:57:08.449Z,88.37
2018-07-07T00:58:08.435Z,88.17
2018-07-07T00:59:08.440Z,88.68
2018-07-07T01:00:08.409Z,89.50
2018-07-07T01:01:08.399Z,89.70
2018-07-07T01:02:08.387Z,89.18
2018-07-07T01:03:08.379Z,89.09
2018-07-07T01:04:08.405Z,89.29
2018-07-07T01:05:08.366Z,89.12
2018-07-07T01:06:08.347Z,89.43
2018-07-07T01:07:08.331Z,89.09
2018-07-07T01:08:08.335Z,89.39
2018-07-07T01:09:08.320Z,88.68
2018-07-07T01:10:08.296Z,87.76
2018-07-07T01:11:08.286Z,87.79
2018-07-07T01:12:08.281Z,88.10
2018-07-07T01:13:08.266Z,88.00
2018-07-07T01:14:08.266Z,88.51
2018-07-07T01:15:08.246Z,88.41
2018-07-07T01:16:08.231Z,88.41
2018-07-07T01:17:08.221Z,88.00
2018-07-07T01:18:08.217Z,88.41
2018-07-07T01:19:08.211Z,88.41
2018-07-07T01:20:08.189Z,88.82
2018-07-07T01:21:08.180Z,89.12
2018-07-07T01:22:08.165Z,88.96
2018-07-07T01:23:08.152Z,89.27
2018-07-07T01:24:08.200Z,88.96
2018-07-07T01:25:08.137Z,89.78
2018-07-07T01:26:08.119Z,89.89
2018-07-07T01:27:08.109Z,89.68
2018-07-07T01:28:08.096Z,90.09
2018-07-07T01:29:08.102Z,89.98
2018-07-07T01:30:08.077Z,89.47
2018-07-07T01:31:08.069Z,89.17
2018-07-07T01:32:08.056Z,89.58
2018-07-07T01:33:08.046Z,88.76
2018-07-07T01:34:08.050Z,89.17
2018-07-07T01:35:08.027Z,88.45
2018-07-07T01:36:08.016Z,88.04
2018-07-07T01:37:08.001Z,87.32
2018-07-07T01:38:07.985Z,87.88
2018-07-07T01:39:07.982Z,88.08
2018-07-07T01:40:07.979Z,88.59
2018-07-07T01:41:07.951Z,88.39
2018-07-07T01:42:07.943Z,88.90
2018-07-07T01:43:07.927Z,89.31
2018-07-07T01:44:07.921Z,89.51
2018-07-07T01:45:07.915Z,89.25
2018-07-07T01:46:07.929Z,89.36
2018-07-07T01:47:07.894Z,89.76
2018-07-07T01:48:07.870Z,90.07
2018-07-07T01:49:07.859Z,89.87
2018-07-07T01:50:07.858Z,89.87
2018-07-07T01:51:07.838Z,90.07
2018-07-07T01:52:07.828Z,89.56
2018-07-07T01:53:07.823Z,89.66
2018-07-07T01:54:07.805Z,89.66
2018-07-07T01:55:07.805Z,89.66
2018-07-07T01:56:07.798Z,89.66
2018-07-07T01:57:07.775Z,89.97
2018-07-07T01:58:07.765Z,90.17
2018-07-07T01:59:07.751Z,89.87
2018-07-07T02:00:07.749Z,89.97
2018-07-07T02:01:07.728Z,89.45
2018-07-07T02:02:07.714Z,90.11
2018-07-07T02:03:07.702Z,89.56
2018-07-07T02:04:07.693Z,89.70
2018-07-07T02:05:07.709Z,89.81
2018-07-07T02:06:07.668Z,90.07
2018-07-07T02:07:07.656Z,90.32
2018-07-07T02:08:07.657Z,90.22
2018-07-07T02:09:07.646Z,90.11
2018-07-07T02:10:07.634Z,89.60
2018-07-07T02:11:07.629Z,89.60
2018-07-07T02:12:07.600Z,89.76
2018-07-07T02:13:07.589Z,89.50
2018-07-07T02:14:07.578Z,89.29
2018-07-07T02:15:07.576Z,89.39
2018-07-07T02:16:07.556Z,89.50
2018-07-07T02:17:07.549Z,89.39
2018-07-07T02:18:07.533Z,89.39
2018-07-07T02:19:07.524Z,89.29
2018-07-07T02:20:07.537Z,89.29
2018-07-07T02:21:07.501Z,89.50
2018-07-07T02:22:07.513Z,88.98
2018-07-07T02:23:07.478Z,88.72
2018-07-07T02:24:07.468Z,88.62
2018-07-07T02:25:07.464Z,89.03
2018-07-07T02:26:07.446Z,89.33
2018-07-07T02:27:07.432Z,89.33
2018-07-07T02:28:07.420Z,89.95
2018-07-07T02:29:07.409Z,89.64
2018-07-07T02:30:07.410Z,89.95
2018-07-07T02:31:07.387Z,90.16
2018-07-07T02:32:07.377Z,90.16
2018-07-07T02:33:07.372Z,90.05
2018-07-07T02:34:07.350Z,89.84
2018-07-07T02:35:07.355Z,89.95
2018-07-07T02:36:07.336Z,89.84
2018-07-07T02:37:07.336Z,89.95
2018-07-07T02:38:07.306Z,89.43
2018-07-07T02:39:07.306Z,89.75
2018-07-07T02:40:07.302Z,89.54
2018-07-07T02:41:07.276Z,89.23
2018-07-07T02:42:07.279Z,89.23
2018-07-07T02:43:07.252Z,89.99
2018-07-07T02:44:07.242Z,90.20
2018-07-07T02:45:07.253Z,89.99
2018-07-07T02:46:07.233Z,90.20
2018-07-07T02:47:07.205Z,89.89
2018-07-07T02:48:07.196Z,90.09
2018-07-07T02:49:07.182Z,89.69
2018-07-07T02:50:07.183Z,89.69
2018-07-07T02:51:07.183Z,90.30
2018-07-07T02:52:07.152Z,89.99
2018-07-07T02:53:07.138Z,89.78
2018-07-07T02:54:07.128Z,90.30
2018-07-07T02:55:07.126Z,90.30
2018-07-07T02:56:07.106Z,89.37
2018-07-07T02:57:07.096Z,88.76
2018-07-07T02:58:07.080Z,87.63
2018-07-07T02:59:07.071Z,87.46
2018-07-07T03:00:07.069Z,87.98
2018-07-07T03:01:07.065Z,88.29
2018-07-07T03:02:07.040Z,88.80
2018-07-07T03:03:07.115Z,88.29
2018-07-07T03:04:07.034Z,88.80
2018-07-07T03:05:07.012Z,88.59
2018-07-07T03:06:06.997Z,89.36
2018-07-07T03:07:06.985Z,89.21
2018-07-07T03:08:06.993Z,89.97
2018-07-07T03:09:06.963Z,89.66
2018-07-07T03:10:06.964Z,89.42
2018-07-07T03:11:06.938Z,89.46
2018-07-07T03:12:06.940Z,89.52
2018-07-07T03:13:06.914Z,89.83
2018-07-07T03:14:06.903Z,89.52
2018-07-07T03:15:06.924Z,89.62
2018-07-07T03:16:06.885Z,89.42
2018-07-07T03:17:06.870Z,89.11
2018-07-07T03:18:06.858Z,89.11
2018-07-07T03:19:06.848Z,89.83
2018-07-07T03:20:06.845Z,89.52
2018-07-07T03:21:06.828Z,89.62
2018-07-07T03:22:06.812Z,89.21
2018-07-07T03:23:06.803Z,88.90
2018-07-07T03:24:06.792Z,89.83
2018-07-07T03:25:06.809Z,89.01
2018-07-07T03:26:06.769Z,88.95
2018-07-07T03:27:06.760Z,87.82
2018-07-07T03:28:06.751Z,88.33
2018-07-07T03:29:06.736Z,88.33
2018-07-07T03:30:06.737Z,88.64
2018-07-07T03:31:06.714Z,88.74
2018-07-07T03:32:06.705Z,89.15
2018-07-07T03:33:06.691Z,90.08
2018-07-07T03:34:06.685Z,89.50
2018-07-07T03:35:06.681Z,90.01
2018-07-07T03:36:06.665Z,89.97
2018-07-07T03:37:06.650Z,90.32
2018-07-07T03:38:06.640Z,90.22
2018-07-07T03:39:06.659Z,89.70
2018-07-07T03:40:06.630Z,89.97
2018-07-07T03:41:06.602Z,89.81
2018-07-07T03:42:06.605Z,90.01
2018-07-07T03:43:06.580Z,90.18
2018-07-07T03:44:06.574Z,90.48
2018-07-07T03:45:06.559Z,90.08
2018-07-07T03:46:06.561Z,89.46
2018-07-07T03:47:06.536Z,89.25
2018-07-07T03:48:06.524Z,89.50
2018-07-07T03:49:06.520Z,90.08
2018-07-07T03:50:06.510Z,90.28
2018-07-07T03:51:06.511Z,89.87
2018-07-07T03:52:06.482Z,89.87
2018-07-07T03:53:06.473Z,90.18
2018-07-07T03:54:06.462Z,89.56
2018-07-07T03:55:06.448Z,89.36
2018-07-07T03:56:06.481Z,89.56
2018-07-07T03:57:06.426Z,89.76
2018-07-07T03:58:06.413Z,89.46
2018-07-07T03:59:06.401Z,89.66
2018-07-07T04:00:06.393Z,89.04
2018-07-07T04:01:06.389Z,88.64
2018-07-07T04:02:06.420Z,88.74
2018-07-07T04:03:06.357Z,88.84
2018-07-07T04:04:06.345Z,88.57
2018-07-07T04:05:06.366Z,88.84
2018-07-07T04:06:06.333Z,88.64
2018-07-07T04:07:06.312Z,88.74
2018-07-07T04:08:06.306Z,88.78
2018-07-07T04:09:06.301Z,88.68
2018-07-07T04:10:06.280Z,89.04
2018-07-07T04:11:06.282Z,89.25
2018-07-07T04:12:06.261Z,89.15
2018-07-07T04:13:06.244Z,90.12
2018-07-07T04:14:06.239Z,89.60
2018-07-07T04:15:06.223Z,89.70
2018-07-07T04:16:06.227Z,89.40
2018-07-07T04:17:06.202Z,89.81
2018-07-07T04:18:06.188Z,89.91
2018-07-07T04:19:06.177Z,89.40
2018-07-07T04:20:06.234Z,89.09
2018-07-07T04:21:06.166Z,88.68
2018-07-07T04:22:06.167Z,88.78
2018-07-07T04:23:06.131Z,88.37
2018-07-07T04:24:06.125Z,88.89
2018-07-07T04:25:06.108Z,89.09
2018-07-07T04:26:06.110Z,90.12
2018-07-07T04:27:06.088Z,89.70
2018-07-07T04:28:06.082Z,89.50
2018-07-07T04:29:06.067Z,89.91
2018-07-07T04:30:06.051Z,89.19
2018-07-07T04:31:06.052Z,88.68
2018-07-07T04:32:06.039Z,89.09
2018-07-07T04:33:06.017Z,89.09
2018-07-07T04:34:06.012Z,89.19
2018-07-07T04:35:05.995Z,88.72
2018-07-07T04:36:05.995Z,89.23
2018-07-07T04:37:05.975Z,89.13
2018-07-07T04:38:05.988Z,90.16
2018-07-07T04:39:05.952Z,89.54
2018-07-07T04:40:05.946Z,89.54
2018-07-07T04:41:05.938Z,89.75
2018-07-07T04:42:05.919Z,89.85
2018-07-07T04:43:05.927Z,89.69
2018-07-07T04:44:05.895Z,89.75
2018-07-07T04:45:05.892Z,89.64
2018-07-07T04:46:05.885Z,89.85
2018-07-07T04:47:05.864Z,89.89
2018-07-07T04:48:05.849Z,89.34
2018-07-07T04:49:05.841Z,89.89
2018-07-07T04:50:05.826Z,89.54
2018-07-07T04:51:05.831Z,89.69
2018-07-07T04:52:05.819Z,89.89
2018-07-07T04:53:05.798Z,89.64
2018-07-07T04:54:05.786Z,89.85
2018-07-07T04:55:05.771Z,89.44
2018-07-07T04:56:05.769Z,89.23
2018-07-07T04:57:05.750Z,88.92
2018-07-07T04:58:05.747Z,88.41
2018-07-07T04:59:05.730Z,88.72
2018-07-07T05:00:05.723Z,88.31
2018-07-07T05:01:05.713Z,88.92
2018-07-07T05:02:05.699Z,88.82
2018-07-07T05:03:05.683Z,88.51
2018-07-07T05:04:05.702Z,88.31
2018-07-07T05:05:05.661Z,88.62
2018-07-07T05:06:05.659Z,88.00
2018-07-07T05:07:05.638Z,88.41
2018-07-07T05:08:05.643Z,88.62
2018-07-07T05:09:05.618Z,88.51
2018-07-07T05:10:05.603Z,88.41
2018-07-07T05:11:05.602Z,88.41
2018-07-07T05:12:05.582Z,88.51
2018-07-07T05:13:05.570Z,89.23
2018-07-07T05:14:05.563Z,89.23
2018-07-07T05:15:05.548Z,89.44
2018-07-07T05:16:05.559Z,89.23
2018-07-07T05:17:05.528Z,89.13
2018-07-07T05:18:05.514Z,89.54
2018-07-07T05:19:05.515Z,89.13
2018-07-07T05:20:05.497Z,89.09
2018-07-07T05:21:05.509Z,88.98
2018-07-07T05:22:05.471Z,89.09
2018-07-07T05:23:05.467Z,88.68
2018-07-07T05:24:05.448Z,88.89
2018-07-07T05:25:05.438Z,88.82
2018-07-07T05:26:05.439Z,88.82
2018-07-07T05:27:05.438Z,88.37
2018-07-07T05:28:05.404Z,88.37
2018-07-07T05:29:05.395Z,88.57
2018-07-07T05:30:05.382Z,89.81
2018-07-07T05:31:05.383Z,89.81
2018-07-07T05:32:05.405Z,89.50
2018-07-07T05:33:05.349Z,89.81
2018-07-07T05:34:05.338Z,89.09
2018-07-07T05:35:05.328Z,88.68
2018-07-07T05:36:05.327Z,88.68
2018-07-07T05:37:05.307Z,88.78
2018-07-07T05:38:05.306Z,88.64
2018-07-07T05:39:05.310Z,88.78
2018-07-07T05:40:05.272Z,89.25
2018-07-07T05:41:05.271Z,89.87
2018-07-07T05:42:05.252Z,89.66
2018-07-07T05:43:05.237Z,89.25
2018-07-07T05:44:05.231Z,88.53
2018-07-07T05:45:05.216Z,88.84
2018-07-07T05:46:05.215Z,88.84
2018-07-07T05:47:05.195Z,88.43
2018-07-07T05:48:05.181Z,88.53
2018-07-07T05:49:05.171Z,89.36
2018-07-07T05:50:05.202Z,89.56
2018-07-07T05:51:05.187Z,89.93
2018-07-07T05:52:05.137Z,89.72
2018-07-07T05:53:05.129Z,89.21
2018-07-07T05:54:05.118Z,90.14
2018-07-07T05:55:05.105Z,89.89
2018-07-07T05:56:05.096Z,90.55
2018-07-07T05:57:05.096Z,90.09
2018-07-07T05:58:05.070Z,90.09
2018-07-07T05:59:05.059Z,90.87
2018-07-07T06:00:05.050Z,90.13
2018-07-07T06:01:05.039Z,87.71
2018-07-07T06:02:05.039Z,84.59
2018-07-07T06:03:05.020Z,80.91
2018-07-07T06:04:05.027Z,79.88
2018-07-07T06:05:05.057Z,77.53
2018-07-07T06:06:04.986Z,74.82
2018-07-07T06:07:04.985Z,74.44
2018-07-07T06:08:04.959Z,72.24
2018-07-07T06:09:04.948Z,69.34
2018-07-07T06:10:04.938Z,68.16
2018-07-07T06:11:04.929Z,67.49
2018-07-07T06:12:04.926Z,66.35
2018-07-07T06:13:04.904Z,63.26
2018-07-07T06:14:04.897Z,61.72
2018-07-07T06:15:04.887Z,62.90
2018-07-07T06:16:04.873Z,63.00
2018-07-07T06:17:04.890Z,62.13
2018-07-07T06:18:04.852Z,61.83
2018-07-07T06:19:04.841Z,61.77
2018-07-07T06:20:04.845Z,59.76
2018-07-07T06:21:04.820Z,58.90
2018-07-07T06:22:04.819Z,59.58
2018-07-07T06:23:04.810Z,55.40
2018-07-07T06:24:04.793Z,54.30
2018-07-07T06:25:04.777Z,54.07
2018-07-07T06:26:04.771Z,52.64
2018-07-07T06:27:04.771Z,54.58
2018-07-07T06:28:04.751Z,53.75
2018-07-07T06:29:04.737Z,53.90
2018-07-07T06:30:04.738Z,54.05
2018-07-07T06:31:04.720Z,52.42
2018-07-07T06:32:04.737Z,52.59
2018-07-07T06:33:04.700Z,52.07
2018-07-07T06:34:04.687Z,54.05
2018-07-07T06:35:04.678Z,52.17
2018-07-07T06:36:04.667Z,52.59
2018-07-07T06:37:04.666Z,53.50
2018-07-07T06:38:04.649Z,52.14
2018-07-07T06:39:04.645Z,49.57
2018-07-07T06:40:04.626Z,47.86
2018-07-07T06:41:04.617Z,48.82
2018-07-07T06:42:04.620Z,47.37
2018-07-07T06:43:04.604Z,48.32
2018-07-07T06:44:04.589Z,49.77
2018-07-07T06:45:04.581Z,46.56
2018-07-07T06:46:04.575Z,44.15
2018-07-07T06:47:04.573Z,44.12
2018-07-07T06:48:04.549Z,47.79
2018-07-07T06:49:04.599Z,43.90
2018-07-07T06:50:04.530Z,42.99
2018-07-07T06:51:04.520Z,46.66
2018-07-07T06:52:04.533Z,42.43
2018-07-07T06:53:04.501Z,43.79
2018-07-07T06:54:04.630Z,40.90
2018-07-07T06:55:04.485Z,41.66
2018-07-07T06:56:04.477Z,41.71
2018-07-07T06:57:04.482Z,40.72
2018-07-07T06:58:04.462Z,39.71
2018-07-07T06:59:04.454Z,40.14
2018-07-07T07:00:04.470Z,39.83
2018-07-07T07:01:04.430Z,40.03
2018-07-07T07:02:04.426Z,34.52
2018-07-07T07:03:04.407Z,37.18
2018-07-07T07:04:04.400Z,35.38
2018-07-07T07:05:04.387Z,38.61
2018-07-07T07:06:04.377Z,37.23
2018-07-07T07:07:04.376Z,35.89
2018-07-07T07:08:04.358Z,35.38
2018-07-07T07:09:04.400Z,30.99
2018-07-07T07:10:04.337Z,34.03
2018-07-07T07:11:04.341Z,33.82
2018-07-07T07:12:04.350Z,33.14
2018-07-07T07:13:04.309Z,31.47
2018-07-07T07:14:04.305Z,28.90
2018-07-07T07:15:04.355Z,30.09
2018-07-07T07:16:04.281Z,28.58
2018-07-07T07:17:04.291Z,28.08
2018-07-07T07:18:04.809Z,29.08
2018-07-07T07:19:04.382Z,31.74
2018-07-07T07:20:04.244Z,27.99
2018-07-07T07:21:04.232Z,28.22
2018-07-07T07:22:04.230Z,30.39
2018-07-07T07:23:04.221Z,30.18
2018-07-07T07:24:04.203Z,36.08
2018-07-07T07:25:04.197Z,34.48
2018-07-07T07:26:04.270Z,32.28
2018-07-07T07:27:04.189Z,27.50
2018-07-07T07:28:04.165Z,27.39
2018-07-07T07:29:04.184Z,26.61
2018-07-07T07:30:04.142Z,25.86
2018-07-07T07:31:04.135Z,26.45
2018-07-07T07:32:04.121Z,27.86
2018-07-07T07:33:04.186Z,27.66
2018-07-07T07:34:04.122Z,29.03
2018-07-07T07:35:05.780Z,27.33
2018-07-07T07:36:06.812Z,23.77
2018-07-07T07:37:04.069Z,21.78
2018-07-07T07:38:04.069Z,21.86
2018-07-07T07:39:04.052Z,23.02
2018-07-07T07:40:04.038Z,21.71
2018-07-07T07:41:04.029Z,24.07
2018-07-07T07:42:04.022Z,25.04
2018-07-07T07:43:04.035Z,24.64
2018-07-07T07:44:03.996Z,26.39
2018-07-07T07:45:03.988Z,24.13
2018-07-07T07:46:03.976Z,19.81
2018-07-07T07:47:03.967Z,21.39
2018-07-07T07:48:03.968Z,21.89
2018-07-07T07:49:03.944Z,22.48
2018-07-07T07:50:03.932Z,19.53
2018-07-07T07:51:03.926Z,21.59
2018-07-07T07:52:03.920Z,19.23
2018-07-07T07:53:03.927Z,18.66
2018-07-07T07:54:03.901Z,19.55
2018-07-07T07:55:03.882Z,20.94
2018-07-07T07:56:03.873Z,19.34
2018-07-07T07:57:03.862Z,18.65
2018-07-07T07:58:03.885Z,20.84
2018-07-07T07:59:03.892Z,18.66
2018-07-07T08:00:04.824Z,22.59
2018-07-07T08:01:03.831Z,21.97
2018-07-07T08:02:03.815Z,19.87
2018-07-07T08:03:03.852Z,22.20
2018-07-07T08:04:03.801Z,21.47
2018-07-07T08:05:05.287Z,20.86
2018-07-07T08:06:03.770Z,17.70
2018-07-07T08:07:03.761Z,15.56
2018-07-07T08:08:03.756Z,15.09
2018-07-07T08:09:03.761Z,15.98
2018-07-07T08:10:03.725Z,16.14
2018-07-07T08:11:03.750Z,17.10
2018-07-07T08:12:03.702Z,16.92
2018-07-07T08:13:03.714Z,16.38
2018-07-07T08:14:03.717Z,16.11
2018-07-07T08:15:03.686Z,15.95
2018-07-07T08:16:03.672Z,18.81
2018-07-07T08:17:03.649Z,18.62
2018-07-07T08:18:03.654Z,19.48
2018-07-07T08:19:03.641Z,17.62
2018-07-07T08:20:03.618Z,18.80
2018-07-07T08:21:03.607Z,17.35
2018-07-07T08:22:03.596Z,18.46
2018-07-07T08:23:03.598Z,17.83
2018-07-07T08:24:03.583Z,15.16
2018-07-07T08:25:03.589Z,17.07
2018-07-07T08:26:03.561Z,15.09
2018-07-07T08:27:03.544Z,15.06
2018-07-07T08:28:03.545Z,13.62
2018-07-07T08:29:03.527Z,15.39
2018-07-07T08:30:03.514Z,15.62
2018-07-07T08:31:03.519Z,18.61
2018-07-07T08:32:03.496Z,19.04
2018-07-07T08:33:03.495Z,17.33
2018-07-07T08:34:03.473Z,17.65
2018-07-07T08:35:03.461Z,18.10
2018-07-07T08:36:03.456Z,17.91
2018-07-07T08:37:03.444Z,17.39
2018-07-07T08:38:03.442Z,18.66
2018-07-07T08:39:03.420Z,18.18
2018-07-07T08:40:03.410Z,16.69
2018-07-07T08:41:03.408Z,16.47
2018-07-07T08:42:03.445Z,16.64
2018-07-07T08:43:03.395Z,15.34
2018-07-07T08:44:03.369Z,15.81
2018-07-07T08:45:03.359Z,16.56
2018-07-07T08:46:03.347Z,16.35
2018-07-07T08:47:03.336Z,17.70
2018-07-07T08:48:03.343Z,19.84
2018-07-07T08:49:03.325Z,18.77
2018-07-07T08:50:03.310Z,17.50
2018-07-07T08:51:03.297Z,15.32
2018-07-07T08:52:03.285Z,15.93
2018-07-07T08:53:03.282Z,18.48
2018-07-07T08:54:03.262Z,18.37
2018-07-07T08:55:03.255Z,16.01
2018-07-07T08:56:03.241Z,15.38
2018-07-07T08:57:03.234Z,14.48
2018-07-07T08:58:03.230Z,15.25
2018-07-07T08:59:03.209Z,16.10
2018-07-07T09:00:03.200Z,15.80
2018-07-07T09:01:03.194Z,14.14
2018-07-07T09:02:03.178Z,15.42
2018-07-07T09:03:03.176Z,16.78
2018-07-07T09:04:03.154Z,14.63
2018-07-07T09:05:03.144Z,14.07
2018-07-07T09:06:03.135Z,13.56
2018-07-07T09:07:03.157Z,13.75
2018-07-07T09:08:03.143Z,15.19
2018-07-07T09:09:03.102Z,15.47
2018-07-07T09:10:03.094Z,15.17
2018-07-07T09:11:03.091Z,14.28
2018-07-07T09:12:03.074Z,13.11
2018-07-07T09:13:03.068Z,14.39
2018-07-07T09:14:03.052Z,15.08
2018-07-07T09:15:03.059Z,15.27
2018-07-07T09:16:03.029Z,14.17
2018-07-07T09:17:03.016Z,15.77
2018-07-07T09:18:03.051Z,16.45
2018-07-07T09:19:02.994Z,16.95
2018-07-07T09:20:02.986Z,14.90
2018-07-07T09:21:02.979Z,15.09
2018-07-07T09:22:02.962Z,14.40
2018-07-07T09:23:02.960Z,16.64
2018-07-07T09:24:02.941Z,15.24
2018-07-07T09:25:02.929Z,14.55
2018-07-07T09:26:02.922Z,15.06
2018-07-07T09:27:02.919Z,13.60
2018-07-07T09:28:02.953Z,14.90
2018-07-07T09:29:02.886Z,14.97
2018-07-07T09:30:02.876Z,15.37
2018-07-07T09:31:02.864Z,15.27
2018-07-07T09:32:02.854Z,14.59
2018-07-07T09:33:02.851Z,16.63
2018-07-07T09:34:02.843Z,14.57
2018-07-07T09:35:02.824Z,13.31
2018-07-07T09:36:02.811Z,13.59
2018-07-07T09:37:02.805Z,13.65
2018-07-07T09:38:02.789Z,13.27
2018-07-07T09:39:02.802Z,13.59
2018-07-07T09:40:02.767Z,13.98
2018-07-07T09:41:02.759Z,13.31
2018-07-07T09:42:02.747Z,12.93
2018-07-07T09:43:02.736Z,14.22
2018-07-07T09:44:02.746Z,16.57
2018-07-07T09:45:02.720Z,15.61
2018-07-07T09:46:02.705Z,16.39
2018-07-07T09:47:02.695Z,15.39
2018-07-07T09:48:02.681Z,13.75
2018-07-07T09:49:02.687Z,14.14
2018-07-07T09:50:02.663Z,15.42
2018-07-07T09:51:02.663Z,17.12
2018-07-07T09:52:02.641Z,15.95
2018-07-07T09:53:02.634Z,17.19
2018-07-07T09:54:02.628Z,18.98
2018-07-07T09:55:02.611Z,18.23
2018-07-07T09:56:02.597Z,18.56
2018-07-07T09:57:02.587Z,18.79
2018-07-07T09:58:02.579Z,19.40
2018-07-07T09:59:02.578Z,19.80
2018-07-07T10:00:02.555Z,26.57
2018-07-07T10:01:02.543Z,23.58
2018-07-07T10:02:02.541Z,23.19
2018-07-07T10:03:02.527Z,22.02
2018-07-07T10:04:02.520Z,22.92
2018-07-07T10:05:02.506Z,20.43
2018-07-07T10:06:02.489Z,23.32
2018-07-07T10:07:02.478Z,24.62
2018-07-07T10:08:02.471Z,22.83
2018-07-07T10:09:02.488Z,21.94
2018-07-07T10:10:02.444Z,21.64
2018-07-07T10:11:02.448Z,22.84
2018-07-07T10:12:02.427Z,21.94
2018-07-07T10:13:02.417Z,23.74
2018-07-07T10:14:02.412Z,23.55
2018-07-07T10:15:02.391Z,24.65
2018-07-07T10:16:02.380Z,23.35
2018-07-07T10:17:02.376Z,23.35
2018-07-07T10:18:02.357Z,26.34
2018-07-07T10:19:02.367Z,24.14
2018-07-07T10:20:02.346Z,24.25
2018-07-07T10:21:02.329Z,24.15
2018-07-07T10:22:02.315Z,26.45
2018-07-07T10:23:02.310Z,25.95
2018-07-07T10:24:02.326Z,26.15
2018-07-07T10:25:02.287Z,24.35
2018-07-07T10:26:02.271Z,21.45
2018-07-07T10:27:02.261Z,22.46
2018-07-07T10:28:02.250Z,23.76
2018-07-07T10:29:02.253Z,24.35
2018-07-07T10:30:02.233Z,23.66
2018-07-07T10:31:02.220Z,24.36
2018-07-07T10:32:02.209Z,24.57
2018-07-07T10:33:02.196Z,24.36
2018-07-07T10:34:02.198Z,25.37
2018-07-07T10:35:02.190Z,25.97
2018-07-07T10:36:02.169Z,27.27
2018-07-07T10:37:02.155Z,29.67
2018-07-07T10:38:02.147Z,26.77
2018-07-07T10:39:02.141Z,27.06
2018-07-07T10:40:02.121Z,29.75
2018-07-07T10:41:02.112Z,29.34
2018-07-07T10:42:02.100Z,26.54
2018-07-07T10:43:02.099Z,26.75
2018-07-07T10:44:02.092Z,28.44
2018-07-07T10:45:02.070Z,26.54
2018-07-07T10:46:02.100Z,26.34
2018-07-07T10:47:02.044Z,25.45
2018-07-07T10:48:02.036Z,24.66
2018-07-07T10:49:02.047Z,27.95
2018-07-07T10:50:02.013Z,28.85
2018-07-07T10:51:02.008Z,28.44
2018-07-07T10:52:01.995Z,27.94
2018-07-07T10:53:02.009Z,24.45
2018-07-07T10:54:01.981Z,26.94
2018-07-07T10:55:01.961Z,24.75
2018-07-07T10:56:01.953Z,28.04
2018-07-07T10:57:01.948Z,28.24
2018-07-07T10:58:01.931Z,27.55
2018-07-07T10:59:01.947Z,26.04
2018-07-07T11:00:01.907Z,27.95
2018-07-07T11:01:01.900Z,30.24
2018-07-07T11:02:01.882Z,29.22
2018-07-07T11:03:01.874Z,27.34
2018-07-07T11:04:01.873Z,31.02
2018-07-07T11:05:01.853Z,29.43
2018-07-07T11:06:01.841Z,28.12
2018-07-07T11:07:01.842Z,28.54
2018-07-07T11:08:01.823Z,28.34
2018-07-07T11:09:01.835Z,30.14
2018-07-07T11:10:01.808Z,29.33
2018-07-07T11:11:01.791Z,28.64
2018-07-07T11:12:01.810Z,27.53
2018-07-07T11:13:01.766Z,27.04
2018-07-07T11:14:01.766Z,28.64
2018-07-07T11:15:01.769Z,30.52
2018-07-07T11:16:01.740Z,27.73
2018-07-07T11:17:01.723Z,28.14
2018-07-07T11:18:01.718Z,28.34
2018-07-07T11:19:01.713Z,28.34
2018-07-07T11:20:01.764Z,28.04
2018-07-07T11:21:01.683Z,26.86
2018-07-07T11:22:01.669Z,28.25
2018-07-07T11:23:01.661Z,29.65
2018-07-07T11:24:01.659Z,30.74
2018-07-07T11:25:01.642Z,29.34
2018-07-07T11:26:01.637Z,26.45
2018-07-07T11:27:01.622Z,28.14
2018-07-07T11:28:01.605Z,29.03
2018-07-07T11:29:01.608Z,27.74
2018-07-07T11:30:01.585Z,28.44
2018-07-07T11:31:01.594Z,28.84
2018-07-07T11:32:01.565Z,28.44
2018-07-07T11:33:01.564Z,28.24
2018-07-07T11:34:01.563Z,27.74
2018-07-07T11:35:01.535Z,31.24
2018-07-07T11:36:01.519Z,29.63
2018-07-07T11:37:01.593Z,28.53
2018-07-07T11:38:01.581Z,27.92
2018-07-07T11:39:01.566Z,27.92
2018-07-07T11:40:01.479Z,28.11
2018-07-07T11:41:01.464Z,27.53
2018-07-07T11:42:01.464Z,27.83
2018-07-07T11:43:01.444Z,29.51
2018-07-07T11:44:01.435Z,28.73
2018-07-07T11:45:01.434Z,29.41
2018-07-07T11:46:01.413Z,29.43
2018-07-07T11:47:01.404Z,28.73
2018-07-07T11:48:01.390Z,28.33
2018-07-07T11:49:01.379Z,29.93
2018-07-07T11:50:01.418Z,29.21
2018-07-07T11:51:01.358Z,28.52
2018-07-07T11:52:01.450Z,30.41
2018-07-07T11:53:01.336Z,28.52
2018-07-07T11:54:01.347Z,28.52
2018-07-07T11:55:01.331Z,28.91
2018-07-07T11:56:01.316Z,31.59
2018-07-07T11:57:01.291Z,29.50
2018-07-07T11:58:01.294Z,31.09
2018-07-07T11:59:01.279Z,31.07
2018-07-07T12:00:01.269Z,28.50
2018-07-07T12:01:01.286Z,29.69
2018-07-07T12:02:01.297Z,29.69
2018-07-07T12:03:01.226Z,28.71
2018-07-07T12:04:01.223Z,31.69
2018-07-07T12:05:01.228Z,29.21
2018-07-07T12:06:01.198Z,29.50
2018-07-07T12:07:01.186Z,31.10
2018-07-07T12:08:13.782Z,29.60
2018-07-07T12:09:01.231Z,33.18
2018-07-07T12:10:01.177Z,30.19
2018-07-07T12:11:01.147Z,31.89
2018-07-07T12:12:01.134Z,31.97
2018-07-07T12:13:01.119Z,29.38
2018-07-07T12:14:01.139Z,28.60
2018-07-07T12:15:01.119Z,30.59
2018-07-07T12:16:01.094Z,30.29
2018-07-07T12:17:01.102Z,30.08
2018-07-07T12:18:01.068Z,30.96
2018-07-07T12:19:01.055Z,31.48
2018-07-07T12:20:01.056Z,31.96
2018-07-07T12:21:01.035Z,30.38
2018-07-07T12:22:01.022Z,31.37
2018-07-07T12:23:01.016Z,31.57
2018-07-07T12:24:01.006Z,29.68
2018-07-07T12:25:01.006Z,31.09
2018-07-07T12:26:00.991Z,30.41
2018-07-07T12:27:00.973Z,31.10
2018-07-07T12:28:00.963Z,31.70
2018-07-07T12:29:00.951Z,32.10
2018-07-07T12:30:00.952Z,30.80
2018-07-07T12:31:00.929Z,32.78
2018-07-07T12:32:00.919Z,31.99
2018-07-07T12:33:00.904Z,33.18
2018-07-07T12:34:00.908Z,37.37
2018-07-07T12:35:00.891Z,33.28
2018-07-07T12:36:00.879Z,30.18
2018-07-07T12:37:00.860Z,31.29
2018-07-07T12:38:00.872Z,29.69
2018-07-07T12:39:00.841Z,30.19
2018-07-07T12:40:00.839Z,30.89
2018-07-07T12:41:00.819Z,29.18
2018-07-07T12:42:00.807Z,30.77
2018-07-07T12:43:00.796Z,31.29
2018-07-07T12:44:00.788Z,32.67
2018-07-07T12:45:00.784Z,30.68
2018-07-07T12:46:00.817Z,30.40
2018-07-07T12:47:00.754Z,32.77
2018-07-07T12:48:00.747Z,28.49
2018-07-07T12:49:00.730Z,28.08
2018-07-07T12:50:00.735Z,28.08
2018-07-07T12:51:00.713Z,28.19
2018-07-07T12:52:00.707Z,32.27